createdAt,value
2018-08-20T00:04:45.000Z,42.751
2018-08-20T00:14:45.000Z,42.804
2018-08-20T00:24:45.000Z,42.934
2018-08-20T00:34:45.000Z,42.941
2018-08-20T00:44:45.000Z,43.061
2018-08-20T00:54:45.000Z,43.047
2018-08-20T01:04:45.000Z,43.024
2018-08-20T01:14:45.000Z,43.11
2018-08-20T01:24:45.000Z,43.077
2018-08-20T01:34:45.000Z,43.074
2018-08-20T01:44:45.000Z,43.073
2018-08-20T01:54:45.000Z,43.105
2018-08-20T02:04:45.000Z,43.135
2018-08-20T02:14:45.000Z,43.123
2018-08-20T02:24:45.000Z,43.208
2018-08-20T02:34:46.000Z,43.241
2018-08-20T02:44:46.000Z,43.382
2018-08-20T02:54:46.000Z,43.435
2018-08-20T03:04:46.000Z,43.576
2018-08-20T03:14:46.000Z,43.564
2018-08-20T03:24:46.000Z,43.627
2018-08-20T03:34:46.000Z,43.626
2018-08-20T03:44:46.000Z,43.712
2018-08-20T03:54:46.000Z,43.711
2018-08-20T04:04:46.000Z,43.776
2018-08-20T04:14:46.000Z,43.84
2018-08-20T04:24:46.000Z,43.871
2018-08-20T04:34:46.000Z,43.946
2018-08-20T04:44:46.000Z,43.978
2018-08-20T04:54:46.000Z,44.076
2018-08-20T05:04:46.000Z,44.119
2018-08-20T05:14:46.000Z,44.304
2018-08-20T05:24:46.000Z,44.337
2018-08-20T05:34:46.000Z,44.569
2018-08-20T05:44:46.000Z,44.656
2018-08-20T05:54:46.000Z,44.743
2018-08-20T06:04:46.000Z,45.009
2018-08-20T06:14:46.000Z,44.976
2018-08-20T06:24:46.000Z,45.207
2018-08-20T06:34:46.000Z,45.24
2018-08-20T06:44:46.000Z,45.731
2018-08-20T06:54:46.000Z,46.352
2018-08-20T07:04:46.000Z,46.664
2018-08-20T07:14:46.000Z,46.401
2018-08-20T07:24:46.000Z,46.534
2018-08-20T07:34:46.000Z,46.314
2018-08-20T07:44:46.000Z,46.492
2018-08-20T07:54:46.000Z,47.038
2018-08-20T08:04:47.000Z,48.145
2018-08-20T08:14:46.000Z,48.534
2018-08-20T08:24:46.000Z,48.974
2018-08-20T08:34:46.000Z,49.196
2018-08-20T08:44:46.000Z,49.233
2018-08-20T08:54:46.000Z,49.575
2018-08-20T09:04:46.000Z,49.626
2018-08-20T09:14:46.000Z,49.792
2018-08-20T09:24:46.000Z,49.815
2018-08-20T09:34:46.000Z,49.544
2018-08-20T09:44:46.000Z,49.524
2018-08-20T09:54:46.000Z,49.594
2018-08-20T10:04:46.000Z,49.851
2018-08-20T10:14:46.000Z,50.035
2018-08-20T10:24:46.000Z,49.741
2018-08-20T10:34:46.000Z,49.88
2018-08-20T10:44:47.000Z,49.838
2018-08-20T10:54:47.000Z,49.949
2018-08-20T11:04:47.000Z,49.861
2018-08-20T11:14:47.000Z,49.832
2018-08-20T11:24:47.000Z,49.722
2018-08-20T11:34:47.000Z,49.614
2018-08-20T11:44:47.000Z,49.517
2018-08-20T11:54:47.000Z,49.494
2018-08-20T12:04:47.000Z,49.287
2018-08-20T12:14:47.000Z,48.818
2018-08-20T12:24:47.000Z,48.502
2018-08-20T12:34:47.000Z,47.845
2018-08-20T12:44:47.000Z,47.888
2018-08-20T12:54:47.000Z,47.757
2018-08-20T13:04:47.000Z,47.56
2018-08-20T13:14:47.000Z,47.268
2018-08-20T13:24:47.000Z,46.859
2018-08-20T13:34:47.000Z,47.096
2018-08-20T13:44:47.000Z,47.179
2018-08-20T13:54:47.000Z,47.072
2018-08-20T14:04:47.000Z,47.113
2018-08-20T14:14:47.000Z,47.21
2018-08-20T14:24:47.000Z,47.123
2018-08-20T14:34:47.000Z,46.359
2018-08-20T14:44:47.000Z,46.313
2018-08-20T14:54:47.000Z,46.315
2018-08-20T15:04:47.000Z,45.888
2018-08-20T15:14:47.000Z,45.843
2018-08-20T15:24:47.000Z,45.796
2018-08-20T15:34:47.000Z,45.774
2018-08-20T15:44:47.000Z,45.583
2018-08-20T15:54:47.000Z,45.667
2018-08-20T16:04:47.000Z,45.11
2018-08-20T16:14:47.000Z,45.111
2018-08-20T16:24:47.000Z,45.047
2018-08-20T16:34:47.000Z,45.082
2018-08-20T16:44:47.000Z,45.224
2018-08-20T16:54:47.000Z,45.375
2018-08-20T17:04:47.000Z,45.507
2018-08-20T17:24:47.000Z,45.508
2018-08-20T17:34:47.000Z,45.295
2018-08-20T17:44:47.000Z,45.405
2018-08-20T17:54:47.000Z,45.589
2018-08-20T18:04:47.000Z,45.753
2018-08-20T18:14:47.000Z,45.761
2018-08-20T18:24:47.000Z,45.903
2018-08-20T18:34:47.000Z,46.056
2018-08-20T18:44:47.000Z,46.108
2018-08-20T18:54:48.000Z,46.12
2018-08-20T19:04:48.000Z,46.284
2018-08-20T19:14:48.000Z,46.513
2018-08-20T19:24:48.000Z,46.018
2018-08-20T19:34:48.000Z,45.929
2018-08-20T19:44:48.000Z,45.874
2018-08-20T19:54:50.000Z,45.816
2018-08-20T20:04:48.000Z,45.77
2018-08-20T20:14:48.000Z,45.834
2018-08-20T20:24:48.000Z,45.831
2018-08-20T20:34:48.000Z,45.818
2018-08-20T20:44:48.000Z,45.828
2018-08-20T20:54:48.000Z,45.814
2018-08-20T21:04:48.000Z,45.661
2018-08-20T21:14:48.000Z,45.647
2018-08-20T21:24:48.000Z,45.634
2018-08-20T21:34:48.000Z,45.622
2018-08-20T21:54:48.000Z,45.605
2018-08-20T22:04:48.000Z,45.625
2018-08-20T22:14:49.000Z,45.614
2018-08-20T22:24:48.000Z,45.6
2018-08-20T22:34:48.000Z,45.719
2018-08-20T22:44:48.000Z,45.728
2018-08-20T22:54:49.000Z,45.737
2018-08-20T23:04:48.000Z,45.723
2018-08-20T23:14:48.000Z,45.71
2018-08-20T23:24:48.000Z,45.708
2018-08-20T23:34:48.000Z,45.697
2018-08-20T23:44:49.000Z,45.75
2018-08-20T23:54:48.000Z,45.694
